Portada
METAR-TAF:

METAR-TAF

Aeroports :

Mae Hong Son, Tailàndia

latitud: 19-18N, longitud: 097-50E, altitud: 267 m

Observació

L'informe es va fer fa 1 hora i 11 minuts, a les 00:00 UTC
Vent calma
Temperatura 19°C
Humitat 78%
Pressió 1011 hPa
Visibilitat: 2000 m
boirina

METAR: VTCH 200000Z 00000KT 2000 BR NSC 19/15 Q1011 NOSIG

Hora: 08:11 (01:11 UTC)

Pronòstic

L'informe es va fer fa 2 hores i 11 minuts, a les 23:00 UTC
Pronòstic vàlid del 20 a les 00 UTC al 20 a les 24 UTC
Vent 5 kt del Oest/Sud-Oest
Visibilitat: 3000 m
boirina
Evolucionant progressivament
l' 20 a les 03 UTC al 20 a les 05 UTC
Visibilitat: 6000 m

TAF: VTCH 192300Z 2000/2024 24005KT 3000 BR NSC BECMG 2003/2005 6000 NSW

Observacions i pronòstics meteorològics de més de 4000 aeroports (METAR i TAF).

Les estacions disponibles són els punts grocs i vermells al mapa.

Posi el ratolí al punt desitjat per veure el nom de l'estació.

Feu clic per veure les observacions i els pronòstics meteorològics.

Per canviar el mapa: feu clic els botons verds amb una creu de color negre per apropar; al botó verd amb un guió per allunyar la imatge; o en les fletxes verdes per a mapes adjacents.


METAR-TAF: